createdAt,value
2022-10-18T00:04:37.017Z,21.01
2022-10-18T00:09:39.824Z,18.96
2022-10-18T00:14:42.724Z,20.08
2022-10-18T00:19:46.762Z,21.31
2022-10-18T00:24:49.658Z,19.33
2022-10-18T00:29:53.073Z,19.37
2022-10-18T00:34:55.875Z,21.42
2022-10-18T00:39:58.785Z,20.82
2022-10-18T00:45:13.198Z,18.54
2022-10-18T00:50:16.866Z,19.79
2022-10-18T00:55:20.261Z,21.30
2022-10-18T01:00:23.499Z,19.54
2022-10-18T01:05:26.914Z,19.18
2022-10-18T01:10:35.960Z,20.98
2022-10-18T01:15:53.026Z,20.49
2022-10-18T01:20:55.796Z,18.36
2022-10-18T01:26:35.768Z,20.25
2022-10-18T01:31:42.462Z,20.18
2022-10-18T01:36:51.051Z,18.61
2022-10-18T01:41:56.870Z,20.59
2022-10-18T01:47:00.549Z,20.43
2022-10-18T01:52:03.577Z,18.49
2022-10-18T01:57:29.132Z,20.44
2022-10-18T02:02:41.151Z,20.27
2022-10-18T02:08:00.423Z,18.24
2022-10-18T02:13:20.856Z,20.31
2022-10-18T02:18:29.970Z,20.62
2022-10-18T02:23:34.969Z,18.51
2022-10-18T02:28:38.636Z,19.85
2022-10-18T02:33:55.791Z,20.44
2022-10-18T02:39:04.299Z,18.21
2022-10-18T02:44:07.084Z,19.62
2022-10-18T02:49:09.905Z,20.31
2022-10-18T02:54:12.638Z,18.15
2022-10-18T02:59:15.527Z,19.60
2022-10-18T03:04:18.596Z,20.86
2022-10-18T03:09:21.463Z,18.80
2022-10-18T03:14:24.268Z,19.63
2022-10-18T03:19:27.067Z,20.25
2022-10-18T03:24:29.869Z,18.07
2022-10-18T03:29:32.663Z,19.86
2022-10-18T03:34:35.468Z,20.44
2022-10-18T03:39:38.278Z,18.39
2022-10-18T03:44:41.182Z,19.91
2022-10-18T03:49:44.003Z,20.09
2022-10-18T03:54:46.880Z,18.44
2022-10-18T03:59:49.679Z,20.15
2022-10-18T04:04:52.888Z,20.75
2022-10-18T04:09:55.690Z,18.90
2022-10-18T04:14:58.491Z,19.63
2022-10-18T04:20:01.394Z,21.00
2022-10-18T04:25:05.377Z,19.05
2022-10-18T04:30:09.022Z,18.85
2022-10-18T04:35:11.844Z,20.76
2022-10-18T04:40:14.850Z,19.64
2022-10-18T04:45:17.548Z,19.23
2022-10-18T04:50:20.462Z,20.94
2022-10-18T04:55:23.361Z,19.59
2022-10-18T05:00:26.160Z,20.08
2022-10-18T05:05:49.641Z,20.95
2022-10-18T05:10:51.832Z,18.79
2022-10-18T05:15:54.633Z,19.78
2022-10-18T05:20:58.054Z,21.02
2022-10-18T05:26:06.685Z,20.47
2022-10-18T05:31:11.877Z,18.59
2022-10-18T05:36:14.848Z,20.37
2022-10-18T05:41:17.558Z,20.82
2022-10-18T05:46:20.435Z,18.77
2022-10-18T05:51:23.455Z,20.31
2022-10-18T05:56:26.627Z,21.25
2022-10-18T06:01:29.574Z,19.39
2022-10-18T06:06:32.994Z,19.77
2022-10-18T06:11:37.092Z,21.19
2022-10-18T06:16:40.009Z,19.96
2022-10-18T06:21:43.389Z,19.57
2022-10-18T06:26:46.122Z,21.53
2022-10-18T06:31:49.038Z,20.57
2022-10-18T06:36:56.309Z,19.92
2022-10-18T06:42:00.922Z,21.67
2022-10-18T06:47:03.687Z,20.38
2022-10-18T06:52:07.451Z,19.36
2022-10-18T06:57:12.023Z,21.32
2022-10-18T07:02:20.410Z,20.43
2022-10-18T07:07:29.033Z,19.94
2022-10-18T07:12:43.406Z,21.77
2022-10-18T07:17:46.081Z,20.46
2022-10-18T07:22:48.883Z,20.65
2022-10-18T07:27:51.623Z,21.71
2022-10-18T07:32:54.535Z,20.60
2022-10-18T07:37:57.506Z,20.13
2022-10-18T07:43:04.461Z,21.70
2022-10-18T07:48:07.583Z,21.04
2022-10-18T07:53:10.497Z,20.62
2022-10-18T07:58:13.397Z,21.90
2022-10-18T08:03:16.014Z,20.17
2022-10-18T08:08:29.682Z,21.46
2022-10-18T08:13:50.670Z,21.23
2022-10-18T08:19:08.846Z,20.66
2022-10-18T08:24:14.053Z,22.26
2022-10-18T08:29:27.958Z,20.64
2022-10-18T08:34:32.277Z,21.15
2022-10-18T08:39:35.116Z,22.45
2022-10-18T08:44:47.344Z,20.76
2022-10-18T08:49:56.876Z,22.19
2022-10-18T08:55:10.013Z,21.85
2022-10-18T09:00:21.761Z,21.30
2022-10-18T09:05:46.027Z,23.00
2022-10-18T09:11:42.920Z,21.27
2022-10-18T09:17:16.085Z,21.13
2022-10-18T09:22:21.099Z,22.57
2022-10-18T09:27:36.645Z,22.63
2022-10-18T09:32:54.011Z,20.73
2022-10-18T09:38:04.731Z,21.43
2022-10-18T09:43:15.925Z,23.05
2022-10-18T09:48:42.463Z,21.08
2022-10-18T09:54:06.586Z,22.32
2022-10-18T09:59:49.327Z,22.85
2022-10-18T10:04:56.542Z,20.65
2022-10-18T10:10:13.150Z,20.92
2022-10-18T10:15:23.932Z,23.05
2022-10-18T10:20:44.423Z,22.29
2022-10-18T10:25:53.398Z,20.36
2022-10-18T10:31:19.029Z,22.08
2022-10-18T10:36:21.994Z,22.73
2022-10-18T10:41:25.109Z,20.81
2022-10-18T10:46:35.847Z,21.23
2022-10-18T10:51:40.193Z,23.13
2022-10-18T10:57:02.897Z,21.39
2022-10-18T11:02:18.297Z,22.20
2022-10-18T11:07:35.774Z,22.45
2022-10-18T11:13:03.834Z,20.38
2022-10-18T11:18:17.443Z,22.05
2022-10-18T11:23:22.187Z,23.12
2022-10-18T11:28:31.174Z,21.36
2022-10-18T11:34:19.060Z,21.88
2022-10-18T11:39:42.061Z,23.03
2022-10-18T11:45:05.124Z,21.01
2022-10-18T11:50:35.633Z,20.47
2022-10-18T11:55:50.780Z,22.49
2022-10-18T12:01:15.606Z,22.39
2022-10-18T12:06:24.040Z,20.58
2022-10-18T12:11:45.271Z,22.45
2022-10-18T12:16:52.269Z,22.34
2022-10-18T12:22:08.939Z,20.85
2022-10-18T12:27:15.274Z,22.91
2022-10-18T12:32:27.054Z,22.75
2022-10-18T12:37:57.418Z,20.55
2022-10-18T12:43:00.244Z,21.33
2022-10-18T12:48:06.008Z,22.76
2022-10-18T12:53:28.625Z,22.35
2022-10-18T12:58:32.727Z,20.92
2022-10-18T13:03:53.081Z,22.53
2022-10-18T13:09:19.742Z,22.60
2022-10-18T13:14:35.623Z,21.28
2022-10-18T13:19:58.127Z,22.76
2022-10-18T13:25:21.476Z,21.89
2022-10-18T13:30:32.982Z,21.40
2022-10-18T13:35:55.214Z,22.91
2022-10-18T13:41:04.112Z,21.19
2022-10-18T13:46:06.899Z,21.19
2022-10-18T13:51:31.803Z,22.23
2022-10-18T13:56:51.522Z,21.95
2022-10-18T14:02:06.085Z,20.68
2022-10-18T14:07:11.390Z,21.89
2022-10-18T14:12:28.730Z,22.61
2022-10-18T14:17:58.112Z,21.18
2022-10-18T14:23:18.245Z,20.69
2022-10-18T14:28:31.260Z,22.44
2022-10-18T14:33:41.061Z,21.62
2022-10-18T14:38:52.131Z,20.60
2022-10-18T14:44:15.762Z,22.27
2022-10-18T14:49:20.890Z,20.91
2022-10-18T14:54:31.834Z,21.00
2022-10-18T14:59:51.652Z,22.21
2022-10-18T15:05:21.598Z,20.49
2022-10-18T15:10:28.562Z,20.99
2022-10-18T15:15:33.470Z,22.08
2022-10-18T15:20:42.840Z,21.15
2022-10-18T15:25:46.060Z,20.49
2022-10-18T15:30:48.960Z,21.67
2022-10-18T15:35:52.543Z,21.62
2022-10-18T15:40:55.981Z,19.71
2022-10-18T15:46:05.117Z,21.17
2022-10-18T15:51:48.873Z,21.83
2022-10-18T15:56:51.712Z,20.41
2022-10-18T16:01:55.087Z,20.35
2022-10-18T16:06:59.515Z,21.99
2022-10-18T16:12:03.699Z,20.93
2022-10-18T16:17:07.599Z,20.42
2022-10-18T16:27:16.710Z,20.70
2022-10-18T16:32:19.511Z,20.23
2022-10-18T16:37:22.256Z,22.13
2022-10-18T16:42:25.012Z,20.64
2022-10-18T16:47:27.812Z,20.04
2022-10-18T16:52:30.775Z,21.77
2022-10-18T16:57:33.689Z,21.38
2022-10-18T17:02:36.499Z,19.19
2022-10-18T17:07:39.426Z,20.68
2022-10-18T17:12:42.432Z,21.75
2022-10-18T17:17:46.167Z,20.12
2022-10-18T17:22:49.473Z,19.57
2022-10-18T17:27:52.269Z,21.40
2022-10-18T17:32:55.757Z,20.86
2022-10-18T17:37:58.690Z,19.29
2022-10-18T17:43:01.387Z,20.95
2022-10-18T17:48:04.189Z,20.79
2022-10-18T17:53:07.008Z,18.26
2022-10-18T17:58:10.345Z,19.08
2022-10-18T18:03:13.724Z,20.54
2022-10-18T18:08:16.624Z,19.80
2022-10-18T18:13:19.763Z,18.87
2022-10-18T18:18:22.741Z,20.46
2022-10-18T18:23:25.948Z,20.58
2022-10-18T18:28:28.773Z,18.24
2022-10-18T18:33:33.292Z,19.20
2022-10-18T18:38:38.244Z,20.36
2022-10-18T18:43:46.470Z,18.64
2022-10-18T18:48:49.476Z,18.03
2022-10-18T18:53:52.482Z,19.73
2022-10-18T18:58:56.822Z,19.61
2022-10-18T19:04:00.593Z,17.71
2022-10-18T19:09:07.377Z,19.03
2022-10-18T19:14:10.215Z,18.94
2022-10-18T19:19:16.576Z,17.96
2022-10-18T19:24:20.861Z,19.34
2022-10-18T19:29:28.927Z,18.34
2022-10-18T19:34:34.429Z,17.36
2022-10-18T19:39:37.763Z,18.91
2022-10-18T19:44:41.898Z,18.23
2022-10-18T19:49:44.804Z,17.19
2022-10-18T19:54:49.263Z,18.81
2022-10-18T19:59:52.039Z,17.60
2022-10-18T20:04:54.839Z,17.01
2022-10-18T20:09:57.539Z,18.24
2022-10-18T20:15:00.340Z,15.92
2022-10-18T20:20:03.450Z,16.05
2022-10-18T20:25:06.454Z,18.01
2022-10-18T20:30:11.377Z,16.65
2022-10-18T20:35:14.410Z,16.02
2022-10-18T20:40:17.518Z,17.75
2022-10-18T20:45:20.632Z,15.92
2022-10-18T20:50:23.327Z,15.44
2022-10-18T20:55:26.073Z,17.48
2022-10-18T21:00:29.134Z,17.11
2022-10-18T21:05:33.063Z,14.98
2022-10-18T21:10:35.871Z,16.73
2022-10-18T21:15:38.767Z,17.43
2022-10-18T21:20:41.566Z,15.75
2022-10-18T21:25:46.161Z,17.08
2022-10-18T21:30:48.909Z,17.63
2022-10-18T21:35:51.710Z,16.22
2022-10-18T21:40:54.511Z,17.65
2022-10-18T21:46:00.589Z,17.25
2022-10-18T21:51:08.532Z,17.02
2022-10-18T21:56:14.485Z,17.98
2022-10-18T22:01:26.292Z,16.49
2022-10-18T22:06:32.622Z,17.19
2022-10-18T22:11:42.345Z,17.91
2022-10-18T22:16:45.148Z,16.56
2022-10-18T22:21:48.052Z,17.04
2022-10-18T22:26:51.366Z,17.42
2022-10-18T22:31:54.782Z,17.55
2022-10-18T22:36:57.684Z,17.68
2022-10-18T22:42:00.484Z,16.52
2022-10-18T22:47:03.285Z,17.47
2022-10-18T22:52:06.085Z,17.26
2022-10-18T22:57:08.891Z,15.95
2022-10-18T23:02:11.687Z,17.42
2022-10-18T23:07:14.444Z,17.45
2022-10-18T23:12:17.188Z,15.87
2022-10-18T23:17:19.991Z,17.28
2022-10-18T23:22:22.790Z,17.38
2022-10-18T23:27:25.593Z,16.18
2022-10-18T23:32:28.802Z,17.07
2022-10-18T23:37:31.776Z,17.11
2022-10-18T23:42:35.125Z,16.13
2022-10-18T23:47:37.920Z,17.27
2022-10-18T23:52:40.722Z,16.75
2022-10-18T23:57:43.528Z,16.32
